Latest Conditions
At L.F.Wade Int. Airport
Recorded at 4:55 am
Showers
Temp.: 
24°C/75°F
Humidity: 
91%
Wind: 
SW 17KT
or 20mph
UV Index: 
0
Island Observations
 
Observations
Sunday, July 05, 2020

Observations are in local time and taken at least once an hour, or upon the start and end of specified events such as showers and thunderstorms.

Time Sky / Weather Wind Speed/Gusts Temp. R.H. Pressure
     knots (mph)  °C (°F)  %  mb / "Hg
 04:55 Overcast Showers SW 17/0 (20/0) 24(75) 91 1012 / 29.89
 04:40 Overcast Showers SSW 16/0 (18/0) 25(77) 90 1012 / 29.89
 03:55 Overcast  SSW 18/0 (21/0) 25(78) 89 1013 / 29.90
 03:02 Overcast  SW 17/0 (20/0) 25(78) 83 1013 / 29.90
 02:55 Overcast Rain SSW 16/0 (18/0) 26(78) 89 1013 / 29.91
 01:55 Mostly Cloudy  S 16/0 (18/0) 26(78) 91 1013 / 29.92
 00:55 Mostly Cloudy  S 14/0 (16/0) 26(78) 90 1014 / 29.93
 00:19 Mostly Cloudy  S 14/0 (16/0) 26(78) 90 1014 / 29.93
 23:55 Mostly Cloudy  S 14/0 (16/0) 26(78) 90 1014 / 29.94
 22:55 Mostly Cloudy  S 11/0 (13/0) 26(78) 90 1014 / 29.94
 21:55 Partly Cloudy  SSW 11/0 (13/0) 26(78) 89 1014 / 29.94
 20:55 Mostly Cloudy  SSW 14/0 (16/0) 26(78) 88 1013 / 29.92
 19:55 Mostly Cloudy  SSW 11/0 (13/0) 26(79) 88 1013 / 29.91
 18:55 Mostly Cloudy  S 13/0 (15/0) 26(79) 85 1013 / 29.91
 17:55 Mostly Cloudy  S 11/0 (13/0) 26(79) 83 1013 / 29.92
 16:55 Mostly Cloudy Showers SSW 15/0 (17/0) 26(78) 87 1014 / 29.93
 16:36 Mostly Cloudy Showers S 13/0 (15/0) 26(78) 87 1014 / 29.93
 16:23 Mostly Cloudy Showers S 12/0 (14/0) 27(80) 90 1014 / 29.93
 15:55 Mostly Cloudy  S 14/0 (16/0) 28(82) 81 1014 / 29.94
 14:55 Mostly Cloudy  SSW 12/0 (14/0) 28(82) 81 1014 / 29.95
 13:55 Mostly Cloudy  SSW 12/0 (14/0) 28(82) 83 1014 / 29.95
 12:55 Partly Cloudy  S 10/0 (12/0) 28(82) 84 1015 / 29.96
 11:55 Mostly Cloudy Showers SSW 10/0 (12/0) 27(81) 88 1014 / 29.95
 10:55 Mostly Cloudy Showers WSW 5/0 (6/0) 27(80) 88 1014 / 29.95
 10:05 Mostly Cloudy Showers W 7/0 (8/0) 25(78) 86 1014 / 29.94
 09:55 Mostly Cloudy Showers W 12/0 (14/0) 24(76) 91 1014 / 29.94
 09:40 Mostly Cloudy Showers WSW 10/0 (12/0) 24(74) 89 1014 / 29.94
 09:04 Mostly Cloudy Showers S 5/0 (6/0) 25(76) 91 1014 / 29.94
 08:55 Mostly Cloudy Showers S 5/0 (6/0) 25(76) 86 1014 / 29.94
 08:40 Mostly Cloudy Showers S 4/0 (5/0) 24(76) 87 1014 / 29.94
 08:17 Mostly Cloudy Showers Calm 25(76) 86 1014 / 29.94
 07:55 Mostly Cloudy Showers VRB 1/0 (1/0) 25(76) 88 1014 / 29.94
 07:19 Mostly Cloudy Showers NNW 5/0 (6/0) 24(75) 91 1014 / 29.93
 06:55 Mostly Cloudy Showers WNW 5/0 (6/0) 24(75) 91 1014 / 29.93
 05:55 Mostly Cloudy Showers WNW 7/0 (8/0) 24(75) 88 1013 / 29.92
 04:55 Mostly Cloudy Showers WNW 13/0 (15/0) 23(73) 91 1013 / 29.91
 04:30 Overcast Showers WNW 14/0 (16/0) 26(78) 92 1013 / 29.90
 04:09 Overcast Showers SW 13/0 (15/0) 26(78) 92 1012 / 29.89
 03:55 Mostly Cloudy  SW 12/0 (14/0) 25(77) 92 1012 / 29.89
 02:55 Overcast  SSW 14/0 (16/0) 25(76) 92 1013 / 29.90
 02:27 Overcast  SSW 15/0 (17/0) 24(75) 93 1013 / 29.90
 01:55 Overcast  SSW 12/0 (14/0) 24(75) 93 1013 / 29.90
 01:24 Mostly Cloudy Rain SW 11/0 (13/0) 23(74) 91 1013 / 29.91
 00:55 Overcast Showers SSW 9/0 (10/0) 24(75) 92 1013 / 29.91
 00:36 Mostly Cloudy Showers SW 10/0 (12/0) 23(74) 91 1013 / 29.92
 23:55 Overcast Showers WSW 12/0 (14/0) 24(75) 92 1014 / 29.94
 23:47 Overcast Showers WSW 12/0 (14/0) 24(75) 91 1014 / 29.94
 23:44 Overcast Showers WSW 12/0 (14/0) 24(76) 87 1014 / 29.94
 23:32 Overcast Showers WSW 12/0 (14/0) 24(76) 88 1014 / 29.94
 22:55 Overcast  SW 9/0 (10/0) 24(76) 87 1014 / 29.93
 21:55 Mostly Cloudy  SW 13/0 (15/0) 24(74) 92 1014 / 29.93
 21:44 Mostly Cloudy  SW 14/0 (16/0) 24(74) 91 1014 / 29.93
 21:35 Overcast Drizzle SSW 15/0 (17/0) 24(74) 92 1013 / 29.92
 20:55 Mostly Cloudy  SSW 16/0 (18/0) 24(74) 89 1014 / 29.93
 19:55 Mostly Cloudy Rain SSW 16/0 (18/0) 24(74) 89 1014 / 29.93
 19:31 Overcast  S 6/0 (7/0) 22(71) 87 1014 / 29.93
 18:55 Overcast Rain S 15/0 (17/0) 22(72) 90 1014 / 29.93
 17:55 Overcast Rain S 12/0 (14/0) 22(72) 90 1014 / 29.94
 16:55 Overcast Rain S 12/0 (14/0) 22(72) 87 1014 / 29.95
 15:55 Overcast Rain SSE 7/0 (8/0) 21(70) 89 1014 / 29.95
 15:33 Overcast Rain S 6/0 (7/0) 22(71) 87 1014 / 29.95
 14:55 Overcast Showers VRB 2/0 (2/0) 21(70) 89 1015 / 29.96
 14:42 Overcast Showers Calm 21(70) 91 1015 / 29.96
 14:33 Overcast Showers VRB 2/0 (2/0) 21(70) 91 1015 / 29.96
 13:55 Overcast Thunderstorm W 11/0 (13/0) 21(70) 91 1016 / 29.99
 13:30 Overcast Showers W 12/0 (14/0) 21(70) 89 1016 / 29.99
 13:01 Overcast Showers WNW 14/0 (16/0) 21(69) 90 1015 / 29.98
 12:55 Overcast Showers WNW 18/0 (21/0) 21(69) 93 1016 / 29.99
 12:44 Overcast Showers WNW 18/0 (21/0) 22(71) 89 1015 / 29.98
 12:37 Overcast Showers W 20/0 (23/0) 21(71) 92 1015 / 29.97
 12:28 Overcast Showers W 12/27 (14/31) 22(71) 91 1015 / 29.96
 12:12 Overcast Showers W 12/0 (14/0) 23(74) 91 1015 / 29.96
 11:55 Overcast Showers WSW 11/0 (13/0) 24(75) 91 1015 / 29.96
 11:39 Overcast Showers WSW 12/0 (14/0) 24(75) 92 1015 / 29.96
 11:30 Overcast Showers WSW 13/0 (15/0) 24(74) 90 1015 / 29.96
 11:19 Overcast Showers WSW 12/0 (14/0) 24(75) 93 1015 / 29.96
 11:14 Overcast Showers SW 11/0 (13/0) 24(76) 91 1015 / 29.96
 10:55 Mostly Cloudy Showers SW 12/0 (14/0) 25(77) 87 1014 / 29.95
 10:40 Overcast Showers SW 12/0 (14/0) 25(77) 87 1014 / 29.95
 10:10 Mostly Cloudy Showers SW 13/0 (15/0) 26(79) 88 1014 / 29.95
 09:55 Overcast Showers SW 15/0 (17/0) 24(76) 87 1014 / 29.95
 09:45 Overcast Showers SW 16/0 (18/0) 24(75) 88 1014 / 29.95
 08:55 Mostly Cloudy Showers SSW 13/0 (15/0) 26(78) 90 1014 / 29.94
 08:44 Mostly Cloudy Showers SW 13/0 (15/0) 26(79) 88 1014 / 29.94
 08:16 Mostly Cloudy Showers WSW 8/0 (9/0) 25(77) 86 1014 / 29.93
 07:55 Mostly Cloudy Showers WSW 9/0 (10/0) 25(77) 86 1014 / 29.94
 07:26 Mostly Cloudy Showers WSW 11/0 (13/0) 24(76) 87 1014 / 29.94
 07:16 Mostly Cloudy Showers SW 14/0 (16/0) 24(74) 92 1014 / 29.94
 07:10 Mostly Cloudy Showers WSW 14/0 (16/0) 24(75) 89 1014 / 29.94
 06:55 Mostly Cloudy Showers SW 12/0 (14/0) 26(78) 90 1014 / 29.93
 05:55 Mostly Cloudy  SW 13/0 (15/0) 26(78) 90 1014 / 29.94
 04:55 Mostly Cloudy  SSW 14/0 (16/0) 26(78) 92 1014 / 29.93
 03:55 Mostly Cloudy  SSW 14/0 (16/0) 26(78) 92 1014 / 29.94
 02:55 Mostly Cloudy  SSW 13/0 (15/0) 26(78) 93 1014 / 29.95
 01:55 Mostly Cloudy  SSW 13/0 (15/0) 26(78) 94 1015 / 29.96
 00:55 Mostly Cloudy  SSW 13/0 (15/0) 26(78) 93 1015 / 29.97
 23:55 Mostly Cloudy  SSW 12/0 (14/0) 26(78) 93 1015 / 29.98
 22:55 Mostly Cloudy  SW 11/0 (13/0) 26(79) 89 1016 / 29.99
 21:55 Mostly Cloudy  SW 13/0 (15/0) 26(79) 89 1015 / 29.98
 20:55 Mostly Cloudy  SW 11/0 (13/0) 26(79) 90 1015 / 29.97
Island AWOS